createdAt,value
2018-09-10T00:02:10.684Z,101419.34
2018-09-10T00:04:38.743Z,101417.42
2018-09-10T00:07:06.804Z,101450.75
2018-09-10T00:09:35.113Z,101439.33
2018-09-10T00:12:03.364Z,101429.39
2018-09-10T00:14:31.437Z,101421.22
2018-09-10T00:16:59.517Z,101431.92
2018-09-10T00:19:27.987Z,101431.45
2018-09-10T00:21:56.154Z,101430.85
2018-09-10T00:24:24.209Z,101427.48
2018-09-10T00:26:52.512Z,101426.28
2018-09-10T00:29:20.907Z,101428.80
2018-09-10T00:31:48.971Z,101435.88
2018-09-10T00:34:17.029Z,101437.66
2018-09-10T00:36:45.094Z,101435.14
2018-09-10T00:39:14.625Z,101443.54
2018-09-10T00:41:43.088Z,101440.29
2018-09-10T00:44:24.320Z,101442.31
2018-09-10T00:46:52.367Z,101445.17
2018-09-10T00:49:26.684Z,101447.31
2018-09-10T00:51:54.923Z,101453.08
2018-09-10T00:54:22.969Z,101446.94
2018-09-10T00:56:51.020Z,101447.52
2018-09-10T00:59:19.047Z,101442.85
2018-09-10T01:01:47.108Z,101436.97
2018-09-10T01:04:15.179Z,101439.23
2018-09-10T01:06:43.209Z,101443.06
2018-09-10T01:09:11.431Z,101435.52
2018-09-10T01:11:40.009Z,101439.00
2018-09-10T01:14:08.643Z,101441.51
2018-09-10T01:16:36.700Z,101449.16
2018-09-10T01:19:04.920Z,101440.77
2018-09-10T01:21:32.992Z,101444.02
2018-09-10T01:24:01.028Z,101443.16
2018-09-10T01:26:29.090Z,101434.91
2018-09-10T01:28:57.172Z,101435.86
2018-09-10T01:31:25.608Z,101431.29
2018-09-10T01:33:59.278Z,101420.86
2018-09-10T01:36:27.358Z,101417.78
2018-09-10T01:38:55.433Z,101421.50
2018-09-10T01:41:23.524Z,101422.23
2018-09-10T01:43:51.588Z,101415.03
2018-09-10T01:46:19.996Z,101420.44
2018-09-10T01:48:48.564Z,101425.84
2018-09-10T01:51:16.616Z,101430.65
2018-09-10T01:53:44.676Z,101425.98
2018-09-10T01:56:12.727Z,101422.63
2018-09-10T01:58:41.023Z,101428.17
2018-09-10T02:01:09.092Z,101433.45
2018-09-10T02:03:37.149Z,101444.60
2018-09-10T02:06:05.491Z,101440.27
2018-09-10T02:08:33.597Z,101440.16
2018-09-10T02:11:01.974Z,101448.20
2018-09-10T02:13:30.310Z,101442.34
2018-09-10T02:15:58.414Z,101434.80
2018-09-10T02:18:26.444Z,101435.02
2018-09-10T02:20:54.501Z,101437.92
2018-09-10T02:23:22.551Z,101440.31
2018-09-10T02:25:50.608Z,101440.56
2018-09-10T02:28:18.737Z,101439.00
2018-09-10T02:30:49.465Z,101433.48
2018-09-10T02:33:17.509Z,101435.05
2018-09-10T02:35:45.708Z,101436.13
2018-09-10T02:38:13.773Z,101445.23
2018-09-10T02:40:42.141Z,101442.31
2018-09-10T02:43:10.207Z,101437.17
2018-09-10T02:45:38.226Z,101430.58
2018-09-10T02:48:06.282Z,101429.86
2018-09-10T02:50:34.317Z,101427.56
2018-09-10T02:53:02.377Z,101435.47
2018-09-10T02:55:30.728Z,101436.32
2018-09-10T02:57:58.776Z,101439.93
2018-09-10T03:00:26.828Z,101446.17
2018-09-10T03:02:55.379Z,101443.78
2018-09-10T03:05:23.691Z,101443.31
2018-09-10T03:07:51.775Z,101443.78
2018-09-10T03:10:22.248Z,101440.30
2018-09-10T03:12:50.940Z,101456.48
2018-09-10T03:15:18.993Z,101446.02
2018-09-10T03:17:47.055Z,101438.95
2018-09-10T03:20:15.091Z,101435.84
2018-09-10T03:22:43.385Z,101438.11
2018-09-10T03:25:11.521Z,101438.48
2018-09-10T03:27:39.589Z,101442.44
2018-09-10T03:30:07.632Z,101445.08
2018-09-10T03:32:35.687Z,101446.02
2018-09-10T03:35:03.988Z,101445.41
2018-09-10T03:37:32.088Z,101449.78
2018-09-10T03:40:00.133Z,101447.99
2018-09-10T03:42:28.175Z,101452.29
2018-09-10T03:44:56.225Z,101443.88
2018-09-10T03:47:24.751Z,101439.42
2018-09-10T03:49:53.028Z,101442.31
2018-09-10T03:52:21.400Z,101443.53
2018-09-10T03:54:49.577Z,101448.80
2018-09-10T03:57:17.748Z,101453.48
2018-09-10T03:59:45.804Z,101445.36
2018-09-10T04:02:14.024Z,101457.46
2018-09-10T04:04:42.126Z,101451.69
2018-09-10T04:07:10.174Z,101441.05
2018-09-10T04:09:38.264Z,101455.41
2018-09-10T04:12:06.481Z,101455.29
2018-09-10T04:14:34.552Z,101455.88
2018-09-10T04:17:02.653Z,101460.34
2018-09-10T04:19:30.730Z,101463.56
2018-09-10T04:21:58.748Z,101456.00
2018-09-10T04:24:26.860Z,101457.45
2018-09-10T04:26:54.913Z,101456.97
2018-09-10T04:29:22.980Z,101459.01
2018-09-10T04:31:51.024Z,101462.59
2018-09-10T04:34:19.095Z,101457.69
2018-09-10T04:36:47.342Z,101459.01
2018-09-10T04:39:15.384Z,101468.48
2018-09-10T04:41:43.963Z,101468.36
2018-09-10T04:44:12.033Z,101468.70
2018-09-10T04:46:40.612Z,101473.03
2018-09-10T04:49:09.622Z,101476.98
2018-09-10T04:51:37.660Z,101482.39
2018-09-10T04:54:06.812Z,101484.52
2018-09-10T04:56:34.982Z,101475.30
2018-09-10T04:59:04.455Z,101484.90
2018-09-10T05:01:32.693Z,101491.63
2018-09-10T05:04:00.794Z,101492.81
2018-09-10T05:09:19.153Z,101495.20
2018-09-10T05:11:47.234Z,101504.90
2018-09-10T05:14:15.284Z,101499.88
2018-09-10T05:17:01.492Z,101501.67
2018-09-10T05:19:30.368Z,101498.78
2018-09-10T05:22:00.738Z,101506.70
2018-09-10T05:24:29.194Z,101511.50
2018-09-10T05:26:57.273Z,101517.96
2018-09-10T05:29:25.339Z,101514.73
2018-09-10T05:31:53.387Z,101513.91
2018-09-10T05:34:21.444Z,101524.94
2018-09-10T05:36:49.795Z,101527.09
2018-09-10T05:39:17.851Z,101531.05
2018-09-10T05:41:45.964Z,101537.39
2018-09-10T05:44:13.960Z,101539.55
2018-09-10T05:46:42.000Z,101549.03
2018-09-10T05:49:10.025Z,101546.74
2018-09-10T05:51:38.149Z,101545.42
2018-09-10T05:54:06.381Z,101555.63
2018-09-10T05:56:34.412Z,101537.04
2018-09-10T05:59:03.250Z,101536.09
2018-09-10T06:01:31.293Z,101525.05
2018-09-10T06:03:59.321Z,101527.08
2018-09-10T06:06:27.516Z,101523.25
2018-09-10T06:08:55.721Z,101528.65
2018-09-10T06:11:23.748Z,101539.58
2018-09-10T06:13:51.792Z,101541.37
2018-09-10T06:16:19.918Z,101550.25
2018-09-10T06:18:48.480Z,101560.80
2018-09-10T06:21:16.539Z,101561.27
2018-09-10T06:23:44.573Z,101565.69
2018-09-10T06:26:12.820Z,101564.49
2018-09-10T06:28:41.069Z,101556.70
2018-09-10T06:31:09.446Z,101549.03
2018-09-10T06:33:37.612Z,101547.36
2018-09-10T06:36:05.681Z,101550.83
2018-09-10T06:38:33.791Z,101545.54
2018-09-10T06:41:01.821Z,101545.53
2018-09-10T06:43:29.852Z,101552.61
2018-09-10T06:45:57.949Z,101557.77
2018-09-10T06:48:26.068Z,101564.51
2018-09-10T06:50:54.112Z,101569.53
2018-09-10T06:53:22.194Z,101571.45
2018-09-10T06:55:50.485Z,101578.54
2018-09-10T06:58:18.528Z,101572.19
2018-09-10T07:00:46.568Z,101569.28
2018-09-10T07:03:14.794Z,101565.91
2018-09-10T07:05:42.841Z,101570.35
2018-09-10T07:08:10.944Z,101573.58
2018-09-10T07:10:38.995Z,101580.66
2018-09-10T07:13:07.125Z,101588.59
2018-09-10T07:15:35.328Z,101584.60
2018-09-10T07:18:03.378Z,101572.83
2018-09-10T07:20:31.404Z,101561.89
2018-09-10T07:22:59.459Z,101560.07
2018-09-10T07:25:27.508Z,101564.34
2018-09-10T07:27:55.548Z,101575.77
2018-09-10T07:30:23.609Z,101586.09
2018-09-10T07:32:51.628Z,101589.21
2018-09-10T07:35:19.691Z,101580.20
2018-09-10T07:37:47.773Z,101580.30
2018-09-10T07:40:15.908Z,101577.50
2018-09-10T07:42:43.985Z,101578.78
2018-09-10T07:45:12.036Z,101578.17
2018-09-10T07:47:40.136Z,101575.73
2018-09-10T07:50:08.202Z,101589.86
2018-09-10T07:52:36.393Z,101597.55
2018-09-10T07:55:05.442Z,101601.25
2018-09-10T07:57:33.489Z,101600.02
2018-09-10T08:00:01.925Z,101607.95
2018-09-10T08:02:30.120Z,101610.80
2018-09-10T08:04:58.174Z,101606.92
2018-09-10T08:07:26.202Z,101602.72
2018-09-10T08:09:54.752Z,101600.78
2018-09-10T08:12:22.857Z,101593.69
2018-09-10T08:14:50.919Z,101592.09
2018-09-10T08:17:18.953Z,101597.47
2018-09-10T08:19:46.995Z,101594.45
2018-09-10T08:22:15.192Z,101599.13
2018-09-10T08:24:43.313Z,101601.62
2018-09-10T08:27:11.366Z,101615.09
2018-09-10T08:29:39.421Z,101613.39
2018-09-10T08:32:07.512Z,101621.32
2018-09-10T08:34:35.584Z,101621.70
2018-09-10T08:37:05.056Z,101634.92
2018-09-10T08:39:33.155Z,101627.67
2018-09-10T08:42:01.195Z,101631.02
2018-09-10T08:44:29.584Z,101634.38
2018-09-10T08:46:57.740Z,101622.23
2018-09-10T08:49:25.791Z,101613.28
2018-09-10T08:51:54.208Z,101612.69
2018-09-10T08:54:22.349Z,101610.44
2018-09-10T08:56:50.269Z,101608.02
2018-09-10T08:59:18.313Z,101615.42
2018-09-10T09:01:46.553Z,101616.39
2018-09-10T09:04:14.576Z,101631.49
2018-09-10T09:06:42.613Z,101633.52
2018-09-10T09:09:10.728Z,101640.84
2018-09-10T09:11:38.767Z,101646.23
2018-09-10T09:14:06.817Z,101656.62
2018-09-10T09:16:34.895Z,101654.41
2018-09-10T09:19:02.944Z,101646.31
2018-09-10T09:21:30.976Z,101641.34
2018-09-10T09:23:59.032Z,101646.87
2018-09-10T09:26:27.068Z,101645.95
2018-09-10T09:28:55.116Z,101642.23
2018-09-10T09:31:23.178Z,101635.42
2018-09-10T09:33:51.215Z,101631.59
2018-09-10T09:36:24.574Z,101636.45
2018-09-10T09:41:02.621Z,101634.42
2018-09-10T09:43:36.338Z,101635.83
2018-09-10T09:46:08.759Z,101642.45
2018-09-10T09:48:36.820Z,101645.25
2018-09-10T09:51:05.689Z,101633.32
2018-09-10T09:53:35.224Z,101624.59
2018-09-10T09:56:03.432Z,101625.16
2018-09-10T09:58:31.455Z,101632.78
2018-09-10T10:01:04.797Z,101633.18
2018-09-10T10:03:38.314Z,101631.14
2018-09-10T10:06:06.468Z,101638.06
2018-09-10T10:08:34.613Z,101642.10
2018-09-10T10:11:02.665Z,101643.34
2018-09-10T10:13:30.687Z,101644.55
2018-09-10T10:15:58.717Z,101637.34
2018-09-10T10:18:26.736Z,101633.31
2018-09-10T10:20:54.803Z,101628.78
2018-09-10T10:23:22.837Z,101636.77
2018-09-10T10:25:51.052Z,101639.73
2018-09-10T10:28:19.124Z,101636.87
2018-09-10T10:30:47.134Z,101637.13
2018-09-10T10:33:15.187Z,101641.75
2018-09-10T10:35:43.282Z,101638.08
2018-09-10T10:38:11.310Z,101637.14
2018-09-10T10:40:39.345Z,101638.23
2018-09-10T10:43:07.373Z,101634.03
2018-09-10T10:45:35.401Z,101629.31
2018-09-10T10:48:03.440Z,101624.60
2018-09-10T10:50:31.454Z,101621.78
2018-09-10T10:52:59.484Z,101620.14
2018-09-10T10:55:27.514Z,101619.55
2018-09-10T10:57:55.541Z,101609.45
2018-09-10T11:00:23.574Z,101616.83
2018-09-10T11:02:51.599Z,101623.27
2018-09-10T11:05:19.620Z,101623.59
2018-09-10T11:07:47.652Z,101624.01
2018-09-10T11:10:15.884Z,101630.65
2018-09-10T11:12:50.624Z,101629.75
2018-09-10T11:15:18.964Z,101629.42
2018-09-10T11:17:46.992Z,101630.29
2018-09-10T11:20:15.025Z,101627.56
2018-09-10T11:22:43.320Z,101624.27
2018-09-10T11:25:11.350Z,101637.48
2018-09-10T11:27:39.439Z,101642.48
2018-09-10T11:30:07.437Z,101643.27
2018-09-10T11:32:35.559Z,101646.78
2018-09-10T11:35:03.597Z,101649.77
2018-09-10T11:37:31.633Z,101648.80
2018-09-10T11:39:59.679Z,101651.55
2018-09-10T11:42:27.705Z,101650.02
2018-09-10T11:44:55.727Z,101652.58
2018-09-10T11:47:23.843Z,101655.36
2018-09-10T11:49:51.891Z,101654.59
2018-09-10T11:52:20.104Z,101662.62
2018-09-10T11:54:48.148Z,101663.84
2018-09-10T11:57:17.111Z,101662.98
2018-09-10T11:59:45.149Z,101665.98
2018-09-10T12:02:13.324Z,101671.73
2018-09-10T12:04:41.257Z,101676.67
2018-09-10T12:07:10.209Z,101675.28
2018-09-10T12:09:38.317Z,101665.88
2018-09-10T12:12:06.571Z,101670.61
2018-09-10T12:14:34.653Z,101673.20
2018-09-10T12:17:02.672Z,101670.60
2018-09-10T12:19:30.928Z,101672.88
2018-09-10T12:21:58.992Z,101675.92
2018-09-10T12:24:27.037Z,101683.33
2018-09-10T12:26:55.079Z,101695.81
2018-09-10T12:29:23.112Z,101698.95
2018-09-10T12:32:03.240Z,101696.09
2018-09-10T12:34:31.273Z,101701.57
2018-09-10T12:36:59.300Z,101699.19
2018-09-10T12:39:27.463Z,101696.41
2018-09-10T12:41:55.556Z,101681.58
2018-09-10T12:44:23.609Z,101682.42
2018-09-10T12:46:51.687Z,101687.96
2018-09-10T12:49:20.049Z,101687.37
2018-09-10T12:51:48.102Z,101686.17
2018-09-10T12:54:16.112Z,101668.20
2018-09-10T12:56:44.556Z,101667.48
2018-09-10T12:59:12.580Z,101672.55
2018-09-10T13:01:40.638Z,101665.22
2018-09-10T13:04:08.679Z,101657.17
2018-09-10T13:06:36.704Z,101664.17
2018-09-10T13:09:06.488Z,101670.25
2018-09-10T13:11:34.617Z,101665.66
2018-09-10T13:14:02.883Z,101674.45
2018-09-10T13:16:30.945Z,101667.23
2018-09-10T13:18:58.973Z,101656.44
2018-09-10T13:21:27.003Z,101646.92
2018-09-10T13:23:55.058Z,101653.02
2018-09-10T13:26:23.097Z,101649.55
2018-09-10T13:28:51.138Z,101646.16
2018-09-10T13:31:19.165Z,101656.50
2018-09-10T13:33:47.366Z,101653.80
2018-09-10T13:36:15.401Z,101664.72
2018-09-10T13:38:43.432Z,101665.88
2018-09-10T13:41:11.462Z,101664.23
2018-09-10T13:43:39.578Z,101663.75
2018-09-10T13:46:07.648Z,101666.14
2018-09-10T13:48:35.696Z,101662.88
2018-09-10T13:51:03.749Z,101672.23
2018-09-10T13:53:31.765Z,101671.66
2018-09-10T13:55:59.792Z,101671.33
2018-09-10T13:58:27.831Z,101655.55
2018-09-10T14:00:55.961Z,101657.68
2018-09-10T14:03:24.000Z,101665.22
2018-09-10T14:05:52.056Z,101675.17
2018-09-10T14:08:20.100Z,101677.34
2018-09-10T14:10:48.356Z,101685.06
2018-09-10T14:13:16.316Z,101686.63
2018-09-10T14:15:44.354Z,101673.71
2018-09-10T14:18:12.681Z,101670.75
2018-09-10T14:20:40.821Z,101680.05
2018-09-10T14:23:08.876Z,101681.97
2018-09-10T14:25:36.897Z,101678.13
2018-09-10T14:28:05.294Z,101684.14
2018-09-10T14:30:33.326Z,101689.09
2018-09-10T14:33:01.494Z,101684.37
2018-09-10T14:35:29.533Z,101689.06
2018-09-10T14:37:57.579Z,101694.69
2018-09-10T14:40:25.616Z,101698.84
2018-09-10T14:42:53.663Z,101706.64
2018-09-10T14:45:21.750Z,101705.31
2018-09-10T14:47:49.788Z,101704.63
2018-09-10T14:50:17.871Z,101709.67
2018-09-10T14:52:45.853Z,101710.64
2018-09-10T14:55:14.144Z,101714.98
2018-09-10T14:57:42.192Z,101718.28
2018-09-10T15:00:14.456Z,101718.49
2018-09-10T15:02:42.920Z,101712.70
2018-09-10T15:08:03.294Z,101710.46
2018-09-10T15:10:31.320Z,101701.26
2018-09-10T15:12:59.366Z,101707.99
2018-09-10T15:15:27.772Z,101714.20
2018-09-10T15:17:55.791Z,101714.84
2018-09-10T15:20:24.035Z,101719.82
2018-09-10T15:22:52.204Z,101716.53
2018-09-10T15:25:20.229Z,101713.33
2018-09-10T15:27:48.281Z,101709.62
2018-09-10T15:30:16.456Z,101710.67
2018-09-10T15:32:44.493Z,101706.29
2018-09-10T15:35:12.526Z,101703.64
2018-09-10T15:37:40.562Z,101692.86
2018-09-10T15:40:08.605Z,101699.72
2018-09-10T15:42:36.649Z,101704.60
2018-09-10T15:45:04.751Z,101716.55
2018-09-10T15:47:32.761Z,101714.47
2018-09-10T15:50:00.780Z,101708.80
2018-09-10T15:52:28.821Z,101702.88
2018-09-10T15:54:56.866Z,101698.89
2018-09-10T15:57:25.240Z,101694.77
2018-09-10T15:59:53.239Z,101691.27
2018-09-10T16:02:21.345Z,101696.39
2018-09-10T16:04:49.928Z,101704.53
2018-09-10T16:07:18.016Z,101700.98
2018-09-10T16:09:46.237Z,101694.41
2018-09-10T16:12:15.584Z,101684.63
2018-09-10T16:14:43.819Z,101679.98
2018-09-10T16:17:12.431Z,101664.25
2018-09-10T16:19:40.472Z,101659.22
2018-09-10T16:22:08.525Z,101657.52
2018-09-10T16:24:36.557Z,101664.79
2018-09-10T16:27:05.082Z,101671.91
2018-09-10T16:29:33.127Z,101667.81
2018-09-10T16:32:01.176Z,101666.33
2018-09-10T16:34:29.273Z,101673.30
2018-09-10T16:36:57.342Z,101673.30
2018-09-10T16:39:25.397Z,101671.91
2018-09-10T16:41:53.505Z,101668.38
2018-09-10T16:44:21.533Z,101658.09
2018-09-10T16:46:49.676Z,101661.23
2018-09-10T16:49:17.745Z,101682.45
2018-09-10T16:51:45.785Z,101690.23
2018-09-10T16:54:14.098Z,101699.86
2018-09-10T16:56:42.043Z,101681.28
2018-09-10T16:59:10.107Z,101682.45
2018-09-10T17:01:38.328Z,101674.94
2018-09-10T17:04:06.445Z,101678.23
2018-09-10T17:06:41.167Z,101679.88
2018-09-10T17:09:09.332Z,101685.19
2018-09-10T17:11:37.396Z,101693.78
2018-09-10T17:14:05.791Z,101693.23
2018-09-10T17:16:33.828Z,101690.77
2018-09-10T17:19:02.029Z,101690.59
2018-09-10T17:21:30.094Z,101705.17
2018-09-10T17:23:59.372Z,101705.92
2018-09-10T17:26:27.680Z,101707.39
2018-09-10T17:28:55.765Z,101702.50
2018-09-10T17:31:23.801Z,101708.39
2018-09-10T17:33:52.020Z,101703.01
2018-09-10T17:36:20.113Z,101704.73
2018-09-10T17:38:48.183Z,101697.19
2018-09-10T17:41:16.398Z,101692.17
2018-09-10T17:43:44.457Z,101689.93
2018-09-10T17:46:12.556Z,101682.59
2018-09-10T17:48:40.610Z,101673.09
2018-09-10T17:51:08.831Z,101679.02
2018-09-10T17:53:37.134Z,101678.95
2018-09-10T17:56:05.357Z,101692.27
2018-09-10T17:58:33.446Z,101685.20
2018-09-10T18:01:01.740Z,101682.58
2018-09-10T18:03:29.801Z,101672.38
2018-09-10T18:05:57.871Z,101663.87
2018-09-10T18:08:26.000Z,101665.03
2018-09-10T18:10:54.113Z,101653.31
2018-09-10T18:13:22.185Z,101657.13
2018-09-10T18:15:50.205Z,101662.67
2018-09-10T18:18:18.252Z,101662.96
2018-09-10T18:20:46.294Z,101663.13
2018-09-10T18:23:14.358Z,101659.35
2018-09-10T18:25:42.389Z,101656.47
2018-09-10T18:28:10.572Z,101662.16
2018-09-10T18:30:38.997Z,101659.34
2018-09-10T18:33:07.066Z,101665.16
2018-09-10T18:35:35.144Z,101664.73
2018-09-10T18:38:03.195Z,101662.44
2018-09-10T18:40:31.257Z,101665.23
2018-09-10T18:42:59.345Z,101655.87
2018-09-10T18:45:27.423Z,101660.22
2018-09-10T18:47:55.461Z,101668.78
2018-09-10T18:50:23.517Z,101689.24
2018-09-10T18:52:51.848Z,101690.00
2018-09-10T18:55:19.892Z,101680.63
2018-09-10T18:57:48.620Z,101686.17
2018-09-10T19:00:16.965Z,101684.03
2018-09-10T19:02:45.064Z,101683.42
2018-09-10T19:05:13.273Z,101670.70
2018-09-10T19:07:41.517Z,101663.48
2018-09-10T19:10:09.950Z,101672.64
2018-09-10T19:12:38.394Z,101677.46
2018-09-10T19:15:06.636Z,101677.84
2018-09-10T19:17:34.772Z,101676.79
2018-09-10T19:20:03.044Z,101673.77
2018-09-10T19:22:45.645Z,101684.35
2018-09-10T19:25:13.696Z,101676.31
2018-09-10T19:27:41.762Z,101681.40
2018-09-10T19:30:10.157Z,101667.70
2018-09-10T19:32:38.507Z,101658.72
2018-09-10T19:35:06.545Z,101669.40
2018-09-10T19:37:34.667Z,101670.52
2018-09-10T19:40:02.718Z,101670.75
2018-09-10T19:42:30.778Z,101677.73
2018-09-10T19:44:58.840Z,101692.07
2018-09-10T19:47:26.952Z,101690.14
2018-09-10T19:49:55.026Z,101688.10
2018-09-10T19:52:23.076Z,101686.91
2018-09-10T19:54:51.157Z,101682.67
2018-09-10T19:57:19.329Z,101687.28
2018-09-10T19:59:47.407Z,101687.75
2018-09-10T20:02:15.458Z,101687.03
2018-09-10T20:04:43.521Z,101680.05
2018-09-10T20:07:11.723Z,101685.24
2018-09-10T20:09:39.849Z,101687.37
2018-09-10T20:12:07.861Z,101700.97
2018-09-10T20:14:36.010Z,101702.16
2018-09-10T20:17:04.089Z,101701.69
2018-09-10T20:19:32.161Z,101709.27
2018-09-10T20:22:00.239Z,101706.38
2018-09-10T20:24:28.293Z,101698.72
2018-09-10T20:26:56.336Z,101694.98
2018-09-10T20:29:24.381Z,101690.19
2018-09-10T20:31:52.439Z,101680.23
2018-09-10T20:34:20.586Z,101677.84
2018-09-10T20:36:48.631Z,101671.38
2018-09-10T20:39:16.687Z,101670.15
2018-09-10T20:41:44.717Z,101666.45
2018-09-10T20:44:12.784Z,101667.91
2018-09-10T20:46:40.845Z,101669.56
2018-09-10T20:49:08.896Z,101676.30
2018-09-10T20:51:37.185Z,101686.02
2018-09-10T20:54:05.267Z,101697.80
2018-09-10T20:56:33.326Z,101703.81
2018-09-10T20:59:02.001Z,101700.45
2018-09-10T21:01:30.273Z,101697.23
2018-09-10T21:03:58.312Z,101694.20
2018-09-10T21:06:26.400Z,101691.94
2018-09-10T21:08:54.499Z,101688.80
2018-09-10T21:11:22.712Z,101680.77
2018-09-10T21:13:51.095Z,101676.55
2018-09-10T21:16:19.144Z,101671.73
2018-09-10T21:18:47.372Z,101670.66
2018-09-10T21:21:15.421Z,101667.07
2018-09-10T21:23:43.660Z,101657.22
2018-09-10T21:26:11.907Z,101657.56
2018-09-10T21:28:39.936Z,101659.37
2018-09-10T21:31:07.939Z,101659.47
2018-09-10T21:33:36.219Z,101660.42
2018-09-10T21:36:05.216Z,101662.22
2018-09-10T21:38:33.227Z,101659.58
2018-09-10T21:41:01.252Z,101664.86
2018-09-10T21:43:29.410Z,101663.43
2018-09-10T21:45:57.428Z,101663.69
2018-09-10T21:48:25.595Z,101664.77
2018-09-10T21:50:53.656Z,101667.17
2018-09-10T21:53:21.943Z,101664.55
2018-09-10T21:55:50.001Z,101654.72
2018-09-10T21:58:18.032Z,101650.37
2018-09-10T22:00:51.547Z,101650.27
2018-09-10T22:03:19.928Z,101660.84
2018-09-10T22:05:47.963Z,101664.56
2018-09-10T22:08:16.274Z,101657.37
2018-09-10T22:10:44.385Z,101668.78
2018-09-10T22:13:12.700Z,101662.53
2018-09-10T22:15:41.295Z,101664.59
2018-09-10T22:18:09.328Z,101662.17
2018-09-10T22:20:37.424Z,101656.90
2018-09-10T22:23:05.645Z,101652.69
2018-09-10T22:25:33.736Z,101660.97
2018-09-10T22:28:01.780Z,101652.80
2018-09-10T22:30:29.849Z,101645.83
2018-09-10T22:32:57.892Z,101650.64
2018-09-10T22:35:25.907Z,101650.73
2018-09-10T22:37:53.963Z,101645.12
2018-09-10T22:40:21.992Z,101647.25
2018-09-10T22:42:50.051Z,101642.11
2018-09-10T22:45:18.620Z,101641.03
2018-09-10T22:47:46.742Z,101637.89
2018-09-10T22:50:15.316Z,101636.95
2018-09-10T22:52:43.338Z,101634.53
2018-09-10T22:55:11.477Z,101643.77
2018-09-10T22:57:39.544Z,101640.78
2018-09-10T23:00:07.937Z,101645.81
2018-09-10T23:02:36.094Z,101637.42
2018-09-10T23:05:04.144Z,101640.53
2018-09-10T23:07:32.164Z,101637.52
2018-09-10T23:10:00.224Z,101628.66
2018-09-10T23:12:28.244Z,101625.55
2018-09-10T23:14:56.294Z,101620.03
2018-09-10T23:17:24.316Z,101612.11
2018-09-10T23:19:52.788Z,101615.09
2018-09-10T23:22:20.877Z,101614.84
2018-09-10T23:24:48.897Z,101613.91
2018-09-10T23:27:16.918Z,101610.55
2018-09-10T23:29:44.945Z,101606.80
2018-09-10T23:32:12.960Z,101618.80
2018-09-10T23:34:41.111Z,101622.16
2018-09-10T23:37:09.160Z,101621.05
2018-09-10T23:39:37.380Z,101623.69
2018-09-10T23:42:05.505Z,101613.73
2018-09-10T23:44:33.736Z,101617.57
2018-09-10T23:47:01.794Z,101613.02
2018-09-10T23:49:29.976Z,101619.48
2018-09-10T23:51:58.003Z,101620.45
2018-09-10T23:54:26.096Z,101618.76
2018-09-10T23:56:54.184Z,101626.20
2018-09-10T23:59:22.604Z,101627.52
